Terminal Aerodrome Forecast
Issued by NWS Mt. Holly, NJ

Home | Current Version | Previous Version | Text Only | Print | Product List | Glossary On
Versions: 1 2 3 4 5 6 7 8 9 10 11 12 13 14 15 16 17 18 19 20 21 22 23 24 25 26 27 28
000
FTUS41 KPHI 011120
TAFPHL
TAF
KPHL 011120Z 0112/0218 23006KT P6SM FEW050 BKN100
      TEMPO 0112/0114 FEW010 BKN100
     FM011600 26011G20KT P6SM BKN050
     FM020000 28008KT P6SM SCT050
     FM020600 33005KT P6SM SCT250
     FM021200 03006KT P6SM SCT250=

USA.gov is the U.S. government's official web portal to all federal, state and local government web resources and services.